Dickinson's Hourly Summary for Friday, May 11, 2018
Hour Temp
(f)
RH
(%)
Solar Rad.
(MJ/m2)
Rainfall
(in)
Wind
(mph)
5/11/2018 12:00 AM 74 83 0 0 0.63
5/11/2018 1:00 AM 74 84 0 0 2.88
5/11/2018 2:00 AM 75 82 0 0 5.22
5/11/2018 3:00 AM 75 81 0 0 4.46
5/11/2018 4:00 AM 74 81 0 0 3.55
5/11/2018 5:00 AM 74 83 0 0 3.69
5/11/2018 6:00 AM 74 84 0 0 3.36
5/11/2018 7:00 AM 74 85 0.02 0 3.12
5/11/2018 8:00 AM 75 77 0.42 0 4.37
5/11/2018 9:00 AM 77 72 0.54 0 6.8
5/11/2018 10:00 AM 79 65 1.01 0 9.39
5/11/2018 11:00 AM 80 62 2.78 0 9.57
5/11/2018 12:00 PM 82 58 2.92 0 9.34
5/11/2018 1:00 PM 82 58 2.62 0 9.39
5/11/2018 2:00 PM 82 57 3.18 0 9.44
5/11/2018 3:00 PM 83 57 3.16 0 8.87
5/11/2018 4:00 PM 82 62 1.86 0 8.6
5/11/2018 5:00 PM 81 65 1.54 0 8.63
5/11/2018 6:00 PM 81 68 1.33 0 7.88
5/11/2018 7:00 PM 79 71 0.43 0 7.22
5/11/2018 8:00 PM 78 74 0.18 0 7.1
5/11/2018 9:00 PM 77 78 0 0 6.09
5/11/2018 10:00 PM 77 81 0 0 5.85
5/11/2018 11:00 PM 77 81 0 0 5.75
Data Summary 77 72 21.99 0.00 6.30